sensor_id;sensor_type;location;lat;lon;timestamp;pressure;altitude;pressure_sealevel;temperature;humidity
28628;BME280;15815;46.760;19.604;2023-02-15T00:00:12;102018.28;;;-0.86;82.09
28628;BME280;15815;46.760;19.604;2023-02-15T00:02:38;102016.56;;;-0.77;83.03
28628;BME280;15815;46.760;19.604;2023-02-15T00:05:07;102028.13;;;-0.70;82.92
28628;BME280;15815;46.760;19.604;2023-02-15T00:07:33;102051.81;;;-0.64;83.38
28628;BME280;15815;46.760;19.604;2023-02-15T00:09:58;102005.38;;;-0.96;82.44
28628;BME280;15815;46.760;19.604;2023-02-15T00:12:24;102053.00;;;-0.75;82.26
28628;BME280;15815;46.760;19.604;2023-02-15T00:14:49;102023.63;;;-1.00;83.53
28628;BME280;15815;46.760;19.604;2023-02-15T00:17:15;102035.13;;;-0.88;84.49
28628;BME280;15815;46.760;19.604;2023-02-15T00:19:41;102036.53;;;-0.90;82.92
28628;BME280;15815;46.760;19.604;2023-02-15T00:22:06;102055.78;;;-0.75;82.66
28628;BME280;15815;46.760;19.604;2023-02-15T00:24:32;102046.41;;;-0.84;83.31
28628;BME280;15815;46.760;19.604;2023-02-15T00:26:58;102050.28;;;-0.80;83.75
28628;BME280;15815;46.760;19.604;2023-02-15T00:29:26;102027.72;;;-0.93;82.71
28628;BME280;15815;46.760;19.604;2023-02-15T00:31:51;102024.41;;;-0.95;82.56
28628;BME280;15815;46.760;19.604;2023-02-15T00:34:22;102018.38;;;-1.02;83.49
28628;BME280;15815;46.760;19.604;2023-02-15T00:36:48;102017.56;;;-1.02;83.70
28628;BME280;15815;46.760;19.604;2023-02-15T00:39:14;102048.63;;;-0.86;84.21
28628;BME280;15815;46.760;19.604;2023-02-15T00:41:42;102021.69;;;-1.00;83.79
28628;BME280;15815;46.760;19.604;2023-02-15T00:44:07;102051.41;;;-0.86;83.08
28628;BME280;15815;46.760;19.604;2023-02-15T00:46:33;102042.03;;;-0.90;83.43
28628;BME280;15815;46.760;19.604;2023-02-15T00:49:00;102035.16;;;-0.93;84.32
28628;BME280;15815;46.760;19.604;2023-02-15T00:51:26;102023.94;;;-1.07;84.34
28628;BME280;15815;46.760;19.604;2023-02-15T00:53:51;102014.81;;;-1.02;84.80
28628;BME280;15815;46.760;19.604;2023-02-15T00:56:17;102034.91;;;-0.97;84.00
28628;BME280;15815;46.760;19.604;2023-02-15T00:58:43;102017.84;;;-1.04;83.50
28628;BME280;15815;46.760;19.604;2023-02-15T01:01:14;102004.09;;;-1.14;83.80
28628;BME280;15815;46.760;19.604;2023-02-15T01:03:41;102007.38;;;-1.12;83.93
28628;BME280;15815;46.760;19.604;2023-02-15T01:06:06;101998.94;;;-1.26;83.66
28628;BME280;15815;46.760;19.604;2023-02-15T01:08:32;102011.84;;;-1.16;84.32
28628;BME280;15815;46.760;19.604;2023-02-15T01:11:06;102024.19;;;-1.03;85.13
28628;BME280;15815;46.760;19.604;2023-02-15T01:13:33;102030.56;;;-1.08;84.98
28628;BME280;15815;46.760;19.604;2023-02-15T01:15:59;102028.63;;;-1.07;84.99
28628;BME280;15815;46.760;19.604;2023-02-15T01:18:24;102015.38;;;-1.10;84.92
28628;BME280;15815;46.760;19.604;2023-02-15T01:20:50;101996.19;;;-1.31;84.53
28628;BME280;15815;46.760;19.604;2023-02-15T01:23:16;102000.00;;;-1.21;84.48
28628;BME280;15815;46.760;19.604;2023-02-15T01:25:42;102009.09;;;-1.21;84.56
28628;BME280;15815;46.760;19.604;2023-02-15T01:28:08;101987.09;;;-1.31;85.26
28628;BME280;15815;46.760;19.604;2023-02-15T01:30:33;101995.34;;;-1.26;84.89
28628;BME280;15815;46.760;19.604;2023-02-15T01:32:59;102017.59;;;-1.12;85.10
28628;BME280;15815;46.760;19.604;2023-02-15T01:35:25;102025.59;;;-1.11;85.33
28628;BME280;15815;46.760;19.604;2023-02-15T01:37:50;102005.19;;;-1.15;85.66
28628;BME280;15815;46.760;19.604;2023-02-15T01:40:17;102012.63;;;-1.10;85.57
28628;BME280;15815;46.760;19.604;2023-02-15T01:42:43;102000.81;;;-1.21;85.11
28628;BME280;15815;46.760;19.604;2023-02-15T01:45:25;101990.91;;;-1.22;85.93
28628;BME280;15815;46.760;19.604;2023-02-15T01:48:02;101999.47;;;-1.23;86.05
28628;BME280;15815;46.760;19.604;2023-02-15T01:50:37;102020.38;;;-1.12;85.19
28628;BME280;15815;46.760;19.604;2023-02-15T01:53:23;102022.38;;;-1.23;85.45
28628;BME280;15815;46.760;19.604;2023-02-15T01:55:57;102000.34;;;-1.33;84.77
28628;BME280;15815;46.760;19.604;2023-02-15T01:58:26;102018.50;;;-1.22;85.36
28628;BME280;15815;46.760;19.604;2023-02-15T02:00:53;101984.38;;;-1.41;84.45
28628;BME280;15815;46.760;19.604;2023-02-15T02:03:30;101997.63;;;-1.43;84.99
28628;BME280;15815;46.760;19.604;2023-02-15T02:06:01;102013.00;;;-1.27;85.70
28628;BME280;15815;46.760;19.604;2023-02-15T02:08:27;101998.41;;;-1.38;85.57
28628;BME280;15815;46.760;19.604;2023-02-15T02:10:53;101977.88;;;-1.61;83.97
28628;BME280;15815;46.760;19.604;2023-02-15T02:13:19;101994.34;;;-1.50;85.57
28628;BME280;15815;46.760;19.604;2023-02-15T02:16:00;102001.53;;;-1.49;86.25
28628;BME280;15815;46.760;19.604;2023-02-15T02:18:41;102003.44;;;-1.45;86.03
28628;BME280;15815;46.760;19.604;2023-02-15T02:21:29;101995.13;;;-1.40;85.57
28628;BME280;15815;46.760;19.604;2023-02-15T02:33:19;102008.19;;;-1.61;87.39
28628;BME280;15815;46.760;19.604;2023-02-15T02:36:06;102018.94;;;-1.59;87.71
28628;BME280;15815;46.760;19.604;2023-02-15T02:41:17;102009.00;;;-1.65;88.68
28628;BME280;15815;46.760;19.604;2023-02-15T02:44:07;102018.13;;;-1.60;86.81
28628;BME280;15815;46.760;19.604;2023-02-15T02:49:40;102017.56;;;-1.67;86.51
28628;BME280;15815;46.760;19.604;2023-02-15T02:57:55;102024.22;;;-1.73;86.50
28628;BME280;15815;46.760;19.604;2023-02-15T03:00:25;101986.81;;;-2.04;85.23
28628;BME280;15815;46.760;19.604;2023-02-15T03:03:00;101998.94;;;-1.90;85.03
28628;BME280;15815;46.760;19.604;2023-02-15T03:05:29;102014.34;;;-1.84;85.78
28628;BME280;15815;46.760;19.604;2023-02-15T03:07:55;102015.44;;;-1.85;85.39
28628;BME280;15815;46.760;19.604;2023-02-15T03:10:23;102006.06;;;-1.94;86.25
28628;BME280;15815;46.760;19.604;2023-02-15T03:12:51;101994.25;;;-2.05;86.09
28628;BME280;15815;46.760;19.604;2023-02-15T03:15:25;102030.59;;;-1.93;85.43
28628;BME280;15815;46.760;19.604;2023-02-15T03:17:57;101989.06;;;-2.11;85.42
28628;BME280;15815;46.760;19.604;2023-02-15T03:20:29;102022.34;;;-1.98;86.08
28628;BME280;15815;46.760;19.604;2023-02-15T03:23:02;101987.97;;;-2.15;86.00
28628;BME280;15815;46.760;19.604;2023-02-15T03:25:44;102009.94;;;-1.95;85.37
28628;BME280;15815;46.760;19.604;2023-02-15T03:28:19;102020.72;;;-2.04;85.20
28628;BME280;15815;46.760;19.604;2023-02-15T03:30:51;102011.34;;;-2.03;85.19
28628;BME280;15815;46.760;19.604;2023-02-15T03:33:19;102025.13;;;-2.03;85.98
28628;BME280;15815;46.760;19.604;2023-02-15T03:39:14;102016.00;;;-1.98;84.72
28628;BME280;15815;46.760;19.604;2023-02-15T03:42:08;102012.97;;;-1.97;84.77
28628;BME280;15815;46.760;19.604;2023-02-15T03:44:46;101995.91;;;-2.04;86.17
28628;BME280;15815;46.760;19.604;2023-02-15T03:47:20;101979.41;;;-2.14;89.32
28628;BME280;15815;46.760;19.604;2023-02-15T03:50:11;102000.59;;;-1.99;89.31
28628;BME280;15815;46.760;19.604;2023-02-15T03:52:38;102014.09;;;-1.98;87.84
28628;BME280;15815;46.760;19.604;2023-02-15T03:55:04;101989.06;;;-2.11;87.36
28628;BME280;15815;46.760;19.604;2023-02-15T03:57:30;101980.81;;;-2.16;87.12
28628;BME280;15815;46.760;19.604;2023-02-15T03:59:56;101977.22;;;-2.32;87.67
28628;BME280;15815;46.760;19.604;2023-02-15T04:02:26;101975.31;;;-2.32;87.10
28628;BME280;15815;46.760;19.604;2023-02-15T04:04:52;101982.19;;;-2.29;87.34
28628;BME280;15815;46.760;19.604;2023-02-15T04:07:18;101962.13;;;-2.45;85.84
28628;BME280;15815;46.760;19.604;2023-02-15T04:09:43;101984.69;;;-2.38;85.80
28628;BME280;15815;46.760;19.604;2023-02-15T04:12:09;101979.19;;;-2.43;86.13
28628;BME280;15815;46.760;19.604;2023-02-15T04:14:35;101987.16;;;-2.31;86.36
28628;BME280;15815;46.760;19.604;2023-02-15T04:17:00;101981.38;;;-2.40;85.09
28628;BME280;15815;46.760;19.604;2023-02-15T04:19:26;101999.81;;;-2.25;86.55
28628;BME280;15815;46.760;19.604;2023-02-15T04:21:51;101970.94;;;-2.43;86.67
28628;BME280;15815;46.760;19.604;2023-02-15T04:24:17;101970.09;;;-2.43;86.17
28628;BME280;15815;46.760;19.604;2023-02-15T04:26:44;101965.16;;;-2.46;86.20
28628;BME280;15815;46.760;19.604;2023-02-15T04:29:09;101968.72;;;-2.41;86.14
28628;BME280;15815;46.760;19.604;2023-02-15T04:31:35;101982.50;;;-2.46;86.22
28628;BME280;15815;46.760;19.604;2023-02-15T04:34:00;101965.97;;;-2.46;85.71
28628;BME280;15815;46.760;19.604;2023-02-15T04:36:29;102003.69;;;-2.36;85.17
28628;BME280;15815;46.760;19.604;2023-02-15T04:38:55;101996.81;;;-2.44;86.40
28628;BME280;15815;46.760;19.604;2023-02-15T04:41:20;101968.16;;;-2.58;86.55
28628;BME280;15815;46.760;19.604;2023-02-15T04:43:46;102016.91;;;-2.38;86.63
28628;BME280;15815;46.760;19.604;2023-02-15T04:46:14;102007.81;;;-2.49;86.85
28628;BME280;15815;46.760;19.604;2023-02-15T04:48:41;102008.38;;;-2.42;87.13
28628;BME280;15815;46.760;19.604;2023-02-15T04:51:07;101993.50;;;-2.56;86.80
28628;BME280;15815;46.760;19.604;2023-02-15T04:53:33;101995.97;;;-2.55;86.91
28628;BME280;15815;46.760;19.604;2023-02-15T04:56:00;102013.88;;;-2.52;86.97
28628;BME280;15815;46.760;19.604;2023-02-15T04:58:25;101999.56;;;-2.54;86.60
28628;BME280;15815;46.760;19.604;2023-02-15T05:00:55;102025.16;;;-2.54;87.37
28628;BME280;15815;46.760;19.604;2023-02-15T05:03:21;102007.56;;;-2.68;88.40
28628;BME280;15815;46.760;19.604;2023-02-15T05:05:47;101980.28;;;-2.74;88.12
28628;BME280;15815;46.760;19.604;2023-02-15T05:08:13;101990.19;;;-2.63;88.56
28628;BME280;15815;46.760;19.604;2023-02-15T05:10:39;101985.78;;;-2.74;89.26
28628;BME280;15815;46.760;19.604;2023-02-15T05:13:04;101989.66;;;-2.70;87.97
28628;BME280;15815;46.760;19.604;2023-02-15T05:15:30;102035.91;;;-2.52;88.45
28628;BME280;15815;46.760;19.604;2023-02-15T05:17:55;102012.78;;;-2.61;87.79
28628;BME280;15815;46.760;19.604;2023-02-15T05:20:22;102026.53;;;-2.56;89.24
28628;BME280;15815;46.760;19.604;2023-02-15T05:22:48;102032.03;;;-2.51;88.88
28628;BME280;15815;46.760;19.604;2023-02-15T05:25:16;102028.72;;;-2.53;88.76
28628;BME280;15815;46.760;19.604;2023-02-15T05:27:42;102042.25;;;-2.46;88.73
28628;BME280;15815;46.760;19.604;2023-02-15T05:30:08;102004.53;;;-2.66;89.24
28628;BME280;15815;46.760;19.604;2023-02-15T05:32:34;102036.47;;;-2.40;89.28
28628;BME280;15815;46.760;19.604;2023-02-15T05:34:59;102035.91;;;-2.37;88.61
28628;BME280;15815;46.760;19.604;2023-02-15T05:37:26;102018.53;;;-2.47;89.31
28628;BME280;15815;46.760;19.604;2023-02-15T05:39:52;102033.16;;;-2.42;90.42
28628;BME280;15815;46.760;19.604;2023-02-15T05:42:17;102029.00;;;-2.50;90.13
28628;BME280;15815;46.760;19.604;2023-02-15T05:44:43;102024.88;;;-2.47;88.84
28628;BME280;15815;46.760;19.604;2023-02-15T05:47:08;102039.75;;;-2.38;89.85
28628;BME280;15815;46.760;19.604;2023-02-15T05:49:34;102030.38;;;-2.47;88.69
28628;BME280;15815;46.760;19.604;2023-02-15T05:51:59;102046.66;;;-2.35;89.70
28628;BME280;15815;46.760;19.604;2023-02-15T05:54:25;102056.84;;;-2.31;89.68
28628;BME280;15815;46.760;19.604;2023-02-15T05:56:51;102074.19;;;-2.30;89.22
28628;BME280;15815;46.760;19.604;2023-02-15T05:59:16;102046.94;;;-2.42;90.27
28628;BME280;15815;46.760;19.604;2023-02-15T06:01:42;102034.25;;;-2.53;90.48
28628;BME280;15815;46.760;19.604;2023-02-15T06:04:07;102062.34;;;-2.31;89.43
28628;BME280;15815;46.760;19.604;2023-02-15T06:06:34;102042.53;;;-2.43;89.36
28628;BME280;15815;46.760;19.604;2023-02-15T06:08:59;102054.63;;;-2.39;90.20
28628;BME280;15815;46.760;19.604;2023-02-15T06:11:25;102079.97;;;-2.22;89.62
28628;BME280;15815;46.760;19.604;2023-02-15T06:13:50;102062.88;;;-2.24;89.93
28628;BME280;15815;46.760;19.604;2023-02-15T06:16:16;102047.75;;;-2.31;89.29
28628;BME280;15815;46.760;19.604;2023-02-15T06:18:42;102064.53;;;-2.07;89.48
28628;BME280;15815;46.760;19.604;2023-02-15T06:21:07;102055.19;;;-2.11;89.86
28628;BME280;15815;46.760;19.604;2023-02-15T06:23:33;102072.78;;;-1.87;89.46
28628;BME280;15815;46.760;19.604;2023-02-15T06:26:01;102037.78;;;-1.97;89.88
28628;BME280;15815;46.760;19.604;2023-02-15T06:28:27;102047.13;;;-1.82;90.10
28628;BME280;15815;46.760;19.604;2023-02-15T06:30:53;102055.66;;;-1.79;89.61
28628;BME280;15815;46.760;19.604;2023-02-15T06:33:19;102047.09;;;-1.62;89.24
28628;BME280;15815;46.760;19.604;2023-02-15T06:35:45;102073.13;;;-1.24;88.63
28628;BME280;15815;46.760;19.604;2023-02-15T06:38:10;102075.00;;;-1.04;88.51
28628;BME280;15815;46.760;19.604;2023-02-15T06:40:36;102053.66;;;-0.94;88.69
28628;BME280;15815;46.760;19.604;2023-02-15T06:43:02;102068.06;;;-0.57;87.94
28628;BME280;15815;46.760;19.604;2023-02-15T06:45:27;102070.88;;;-0.28;88.07
28628;BME280;15815;46.760;19.604;2023-02-15T06:47:53;102043.06;;;-0.08;87.21
28628;BME280;15815;46.760;19.604;2023-02-15T06:50:18;102075.78;;;0.38;86.79
28628;BME280;15815;46.760;19.604;2023-02-15T06:52:44;102045.53;;;0.46;86.01
28628;BME280;15815;46.760;19.604;2023-02-15T06:55:09;102066.75;;;0.99;85.33
28628;BME280;15815;46.760;19.604;2023-02-15T06:57:35;102081.22;;;1.52;85.33
28628;BME280;15815;46.760;19.604;2023-02-15T07:00:00;102074.03;;;2.02;84.49
28628;BME280;15815;46.760;19.604;2023-02-15T07:02:29;102071.41;;;2.25;83.66
28628;BME280;15815;46.760;19.604;2023-02-15T07:04:54;102064.44;;;2.68;82.69
28628;BME280;15815;46.760;19.604;2023-02-15T07:07:22;102059.66;;;3.10;82.05
28628;BME280;15815;46.760;19.604;2023-02-15T07:09:48;102070.63;;;3.65;81.66
28628;BME280;15815;46.760;19.604;2023-02-15T07:12:13;102086.13;;;4.33;81.64
28628;BME280;15815;46.760;19.604;2023-02-15T07:14:39;102078.97;;;4.89;84.38
28628;BME280;15815;46.760;19.604;2023-02-15T07:17:05;102093.88;;;5.58;81.24
28628;BME280;15815;46.760;19.604;2023-02-15T07:19:30;102086.16;;;5.99;83.32
28628;BME280;15815;46.760;19.604;2023-02-15T07:21:56;102084.56;;;6.53;83.10
28628;BME280;15815;46.760;19.604;2023-02-15T07:24:21;102096.44;;;6.79;84.06
28628;BME280;15815;46.760;19.604;2023-02-15T07:26:47;102085.81;;;7.53;82.81
28628;BME280;15815;46.760;19.604;2023-02-15T07:29:13;102081.63;;;7.80;80.15
28628;BME280;15815;46.760;19.604;2023-02-15T07:31:38;102085.25;;;8.34;81.49
28628;BME280;15815;46.760;19.604;2023-02-15T07:34:05;102089.03;;;8.99;81.01
28628;BME280;15815;46.760;19.604;2023-02-15T07:36:31;102072.47;;;8.82;76.33
28628;BME280;15815;46.760;19.604;2023-02-15T07:38:59;102073.25;;;8.70;71.82
28628;BME280;15815;46.760;19.604;2023-02-15T07:41:26;102067.84;;;8.41;74.24
28628;BME280;15815;46.760;19.604;2023-02-15T07:43:52;102068.31;;;8.43;73.19
28628;BME280;15815;46.760;19.604;2023-02-15T07:46:18;102067.78;;;8.49;76.61
28628;BME280;15815;46.760;19.604;2023-02-15T07:48:44;102060.66;;;8.52;74.09
28628;BME280;15815;46.760;19.604;2023-02-15T07:51:11;102083.94;;;9.53;73.82
28628;BME280;15815;46.760;19.604;2023-02-15T07:53:37;102058.22;;;10.35;70.16
28628;BME280;15815;46.760;19.604;2023-02-15T07:56:06;102082.25;;;10.05;71.88
28628;BME280;15815;46.760;19.604;2023-02-15T07:58:33;102059.53;;;10.69;70.24
28628;BME280;15815;46.760;19.604;2023-02-15T08:01:02;102073.34;;;12.18;72.06
28628;BME280;15815;46.760;19.604;2023-02-15T08:03:28;102076.81;;;12.99;73.43
28628;BME280;15815;46.760;19.604;2023-02-15T08:05:58;102064.88;;;12.87;73.56
28628;BME280;15815;46.760;19.604;2023-02-15T08:08:25;102077.09;;;12.91;72.84
28628;BME280;15815;46.760;19.604;2023-02-15T08:10:50;102058.94;;;13.71;71.22
28628;BME280;15815;46.760;19.604;2023-02-15T08:13:17;102047.38;;;14.20;65.79
28628;BME280;15815;46.760;19.604;2023-02-15T08:15:49;102063.97;;;14.59;63.99
28628;BME280;15815;46.760;19.604;2023-02-15T08:18:15;102077.28;;;15.06;61.84
28628;BME280;15815;46.760;19.604;2023-02-15T08:20:41;102058.69;;;14.20;62.76
28628;BME280;15815;46.760;19.604;2023-02-15T08:23:07;102057.38;;;14.92;55.84
28628;BME280;15815;46.760;19.604;2023-02-15T08:25:35;102048.38;;;15.34;59.12
28628;BME280;15815;46.760;19.604;2023-02-15T08:28:01;102042.97;;;15.88;61.06
28628;BME280;15815;46.760;19.604;2023-02-15T08:30:26;102055.13;;;15.88;59.57
28628;BME280;15815;46.760;19.604;2023-02-15T08:32:52;102073.28;;;15.07;60.50
28628;BME280;15815;46.760;19.604;2023-02-15T08:35:17;102056.91;;;16.35;60.16
28628;BME280;15815;46.760;19.604;2023-02-15T08:37:43;102056.16;;;17.10;58.39
28628;BME280;15815;46.760;19.604;2023-02-15T08:40:09;102046.59;;;15.08;53.46
28628;BME280;15815;46.760;19.604;2023-02-15T08:42:37;102037.00;;;15.31;51.69
28628;BME280;15815;46.760;19.604;2023-02-15T08:45:05;102058.38;;;15.87;57.56
28628;BME280;15815;46.760;19.604;2023-02-15T08:47:30;102052.03;;;17.43;55.71
28628;BME280;15815;46.760;19.604;2023-02-15T08:49:56;102035.84;;;16.54;48.51
28628;BME280;15815;46.760;19.604;2023-02-15T08:52:23;102038.16;;;15.92;50.27
28628;BME280;15815;46.760;19.604;2023-02-15T08:54:49;102045.97;;;16.45;48.17
28628;BME280;15815;46.760;19.604;2023-02-15T08:57:14;102019.59;;;17.26;47.65
28628;BME280;15815;46.760;19.604;2023-02-15T08:59:40;102028.03;;;18.38;48.59
28628;BME280;15815;46.760;19.604;2023-02-15T09:02:05;102037.03;;;18.30;nan
28628;BME280;15815;46.760;19.604;2023-02-15T09:04:34;102024.25;;;17.93;50.96
28628;BME280;15815;46.760;19.604;2023-02-15T09:07:00;102034.78;;;17.96;44.88
28628;BME280;15815;46.760;19.604;2023-02-15T09:09:25;102039.91;;;18.26;45.63
28628;BME280;15815;46.760;19.604;2023-02-15T09:11:55;102026.75;;;18.98;44.63
28628;BME280;15815;46.760;19.604;2023-02-15T09:14:22;102040.31;;;19.96;44.43
28628;BME280;15815;46.760;19.604;2023-02-15T09:16:48;102037.44;;;20.27;44.18
28628;BME280;15815;46.760;19.604;2023-02-15T09:19:15;102034.59;;;20.57;41.50
28628;BME280;15815;46.760;19.604;2023-02-15T09:21:41;102051.00;;;21.00;43.87
28628;BME280;15815;46.760;19.604;2023-02-15T09:24:14;102045.97;;;20.84;38.73
28628;BME280;15815;46.760;19.604;2023-02-15T09:26:46;102038.31;;;20.78;41.35
28628;BME280;15815;46.760;19.604;2023-02-15T09:29:12;102040.69;;;20.83;41.89
28628;BME280;15815;46.760;19.604;2023-02-15T09:31:43;102042.47;;;20.96;41.62
28628;BME280;15815;46.760;19.604;2023-02-15T09:34:12;102032.88;;;20.87;35.63
28628;BME280;15815;46.760;19.604;2023-02-15T09:36:39;102024.59;;;20.92;39.14
28628;BME280;15815;46.760;19.604;2023-02-15T09:39:22;102018.09;;;21.35;38.63
28628;BME280;15815;46.760;19.604;2023-02-15T09:48:17;102036.13;;;21.09;34.00
28628;BME280;15815;46.760;19.604;2023-02-15T09:51:15;102026.81;;;21.05;32.76
28628;BME280;15815;46.760;19.604;2023-02-15T09:54:00;102021.03;;;21.32;35.34
28628;BME280;15815;46.760;19.604;2023-02-15T09:56:32;102021.34;;;21.14;35.73
28628;BME280;15815;46.760;19.604;2023-02-15T10:02:02;102035.25;;;22.50;35.50
28628;BME280;15815;46.760;19.604;2023-02-15T10:07:41;102026.59;;;22.18;31.72
28628;BME280;15815;46.760;19.604;2023-02-15T10:18:22;102026.19;;;22.36;33.35
28628;BME280;15815;46.760;19.604;2023-02-15T10:34:14;102015.88;;;23.49;30.58
28628;BME280;15815;46.760;19.604;2023-02-15T10:41:54;101998.88;;;22.96;30.85
28628;BME280;15815;46.760;19.604;2023-02-15T10:44:32;102013.47;;;22.69;33.26
28628;BME280;15815;46.760;19.604;2023-02-15T10:52:42;102000.78;;;23.32;29.66
28628;BME280;15815;46.760;19.604;2023-02-15T10:55:42;101999.03;;;23.92;28.96
28628;BME280;15815;46.760;19.604;2023-02-15T10:58:29;101985.56;;;23.77;29.24
28628;BME280;15815;46.760;19.604;2023-02-15T11:06:56;101987.22;;;22.22;29.47
28628;BME280;15815;46.760;19.604;2023-02-15T11:09:25;101972.56;;;22.85;30.85
28628;BME280;15815;46.760;19.604;2023-02-15T11:11:56;101953.19;;;23.05;30.01
28628;BME280;15815;46.760;19.604;2023-02-15T11:17:42;101967.28;;;23.29;29.90
28628;BME280;15815;46.760;19.604;2023-02-15T11:20:25;101972.56;;;23.30;28.19
28628;BME280;15815;46.760;19.604;2023-02-15T11:22:54;101966.44;;;23.28;30.48
28628;BME280;15815;46.760;19.604;2023-02-15T11:25:29;101945.84;;;22.72;28.93
28628;BME280;15815;46.760;19.604;2023-02-15T11:27:55;101959.63;;;22.93;29.34
28628;BME280;15815;46.760;19.604;2023-02-15T11:30:23;101952.03;;;23.03;28.23
28628;BME280;15815;46.760;19.604;2023-02-15T11:32:53;101951.06;;;22.77;29.18
28628;BME280;15815;46.760;19.604;2023-02-15T11:35:21;101946.72;;;23.59;29.07
28628;BME280;15815;46.760;19.604;2023-02-15T11:37:53;101951.03;;;22.93;29.43
28628;BME280;15815;46.760;19.604;2023-02-15T11:40:33;101949.97;;;23.03;29.16
28628;BME280;15815;46.760;19.604;2023-02-15T11:43:05;101941.56;;;22.64;29.58
28628;BME280;15815;46.760;19.604;2023-02-15T11:45:33;101932.47;;;22.20;28.93
28628;BME280;15815;46.760;19.604;2023-02-15T11:47:59;101937.09;;;22.63;30.34
28628;BME280;15815;46.760;19.604;2023-02-15T11:50:32;101929.09;;;22.70;28.87
28628;BME280;15815;46.760;19.604;2023-02-15T11:53:18;101939.09;;;22.49;29.31
28628;BME280;15815;46.760;19.604;2023-02-15T11:55:47;101924.72;;;22.66;29.87
28628;BME280;15815;46.760;19.604;2023-02-15T11:58:40;101919.47;;;22.32;28.23
28628;BME280;15815;46.760;19.604;2023-02-15T12:01:50;101919.56;;;22.28;28.94
28628;BME280;15815;46.760;19.604;2023-02-15T12:04:01;101917.72;;;21.06;29.49
28628;BME280;15815;46.760;19.604;2023-02-15T12:06:34;101923.00;;;20.88;30.51
28628;BME280;15815;46.760;19.604;2023-02-15T12:11:39;101915.72;;;20.40;30.07
28628;BME280;15815;46.760;19.604;2023-02-15T12:14:09;101903.56;;;19.82;31.60
28628;BME280;15815;46.760;19.604;2023-02-15T12:16:48;101912.44;;;19.88;32.00
28628;BME280;15815;46.760;19.604;2023-02-15T12:21:51;101903.09;;;19.26;31.92
28628;BME280;15815;46.760;19.604;2023-02-15T12:24:20;101903.63;;;19.44;31.92
28628;BME280;15815;46.760;19.604;2023-02-15T12:26:59;101880.28;;;18.92;32.81
28628;BME280;15815;46.760;19.604;2023-02-15T12:29:30;101884.03;;;19.16;32.96
28628;BME280;15815;46.760;19.604;2023-02-15T12:31:57;101872.59;;;18.86;33.31
28628;BME280;15815;46.760;19.604;2023-02-15T12:34:36;101866.47;;;18.91;33.15
28628;BME280;15815;46.760;19.604;2023-02-15T12:37:10;101876.00;;;18.73;33.30
28628;BME280;15815;46.760;19.604;2023-02-15T12:39:51;101878.06;;;17.73;34.03
28628;BME280;15815;46.760;19.604;2023-02-15T12:42:19;101883.03;;;17.51;34.90
28628;BME280;15815;46.760;19.604;2023-02-15T12:45:00;101876.72;;;17.15;35.64
28628;BME280;15815;46.760;19.604;2023-02-15T12:47:26;101869.28;;;17.42;35.04
28628;BME280;15815;46.760;19.604;2023-02-15T12:50:13;101863.38;;;17.08;34.71
28628;BME280;15815;46.760;19.604;2023-02-15T12:52:39;101851.16;;;17.15;34.68
28628;BME280;15815;46.760;19.604;2023-02-15T12:55:31;101860.50;;;17.15;35.45
28628;BME280;15815;46.760;19.604;2023-02-15T12:58:17;101861.38;;;16.94;35.61
28628;BME280;15815;46.760;19.604;2023-02-15T13:00:46;101854.88;;;17.01;35.93
28628;BME280;15815;46.760;19.604;2023-02-15T13:03:20;101854.94;;;16.87;36.06
28628;BME280;15815;46.760;19.604;2023-02-15T13:05:48;101850.94;;;16.34;36.11
28628;BME280;15815;46.760;19.604;2023-02-15T13:10:56;101849.34;;;16.44;35.83
28628;BME280;15815;46.760;19.604;2023-02-15T13:13:31;101850.59;;;16.18;36.80
28628;BME280;15815;46.760;19.604;2023-02-15T13:16:12;101848.53;;;16.15;37.06
28628;BME280;15815;46.760;19.604;2023-02-15T13:18:47;101852.19;;;15.91;37.88
28628;BME280;15815;46.760;19.604;2023-02-15T13:21:20;101855.81;;;15.81;38.04
28628;BME280;15815;46.760;19.604;2023-02-15T13:23:58;101857.47;;;15.89;37.74
28628;BME280;15815;46.760;19.604;2023-02-15T13:26:29;101840.44;;;15.74;38.09
28628;BME280;15815;46.760;19.604;2023-02-15T13:28:58;101841.25;;;15.82;37.79
28628;BME280;15815;46.760;19.604;2023-02-15T13:31:32;101844.44;;;15.59;38.99
28628;BME280;15815;46.760;19.604;2023-02-15T13:34:15;101842.06;;;15.65;39.14
28628;BME280;15815;46.760;19.604;2023-02-15T13:50:26;101829.03;;;15.46;38.78
28628;BME280;15815;46.760;19.604;2023-02-15T13:56:15;101814.31;;;15.01;39.93
28628;BME280;15815;46.760;19.604;2023-02-15T14:07:40;101829.53;;;14.68;40.81
28628;BME280;15815;46.760;19.604;2023-02-15T14:10:29;101837.72;;;14.80;40.64
28628;BME280;15815;46.760;19.604;2023-02-15T14:13:25;101836.00;;;14.69;40.40
28628;BME280;15815;46.760;19.604;2023-02-15T14:16:05;101800.22;;;14.32;40.77
28628;BME280;15815;46.760;19.604;2023-02-15T14:19:03;101791.25;;;14.23;41.19
28628;BME280;15815;46.760;19.604;2023-02-15T14:21:34;101822.69;;;14.14;41.13
28628;BME280;15815;46.760;19.604;2023-02-15T14:32:34;101808.00;;;13.95;41.68
28628;BME280;15815;46.760;19.604;2023-02-15T14:35:13;101792.44;;;13.67;41.79
28628;BME280;15815;46.760;19.604;2023-02-15T14:37:58;101806.50;;;13.60;42.10
28628;BME280;15815;46.760;19.604;2023-02-15T14:40:59;101806.66;;;13.37;42.13
28628;BME280;15815;46.760;19.604;2023-02-15T14:44:20;101816.38;;;13.40;42.57
28628;BME280;15815;46.760;19.604;2023-02-15T14:46:25;101795.06;;;13.12;42.81
28628;BME280;15815;46.760;19.604;2023-02-15T14:48:55;101789.22;;;12.91;43.16
28628;BME280;15815;46.760;19.604;2023-02-15T15:02:18;101786.06;;;12.36;45.06
28628;BME280;15815;46.760;19.604;2023-02-15T15:07:18;101807.88;;;12.39;44.23